Time,TemperatureF,DewpointF,PressureIn,WindDirection,WindDirectionDegrees,WindSpeedMPH,WindSpeedGustMPH,Humidity,HourlyPrecipIn,Conditions,Clouds,dailyrainin,SoftwareType,DateUTC
2014-01-13 00:05:00,43.0,-1.5,25.99,NNW,339,3.6,4.5,15,0.00,,---,0.00,VWS V12.07,2014-01-13 07:05:00,
2014-01-13 00:14:00,42.9,-1.6,25.99,NNW,339,3.6,5.8,15,0.00,,---,0.00,VWS V12.07,2014-01-13 07:14:00,
2014-01-13 00:15:00,43.0,-1.5,25.99,NNW,339,3.1,5.8,15,0.00,,---,0.00,VWS V12.07,2014-01-13 07:15:00,
2014-01-13 00:22:00,43.2,-1.3,25.99,NNW,341,4.9,7.2,15,0.00,,---,0.00,VWS V12.07,2014-01-13 07:22:00,
2014-01-13 00:25:00,43.2,-1.3,25.99,NNW,343,7.6,7.6,15,0.00,,---,0.00,VWS V12.07,2014-01-13 07:25:00,
2014-01-13 00:35:00,43.2,-1.3,25.99,North,2,3.6,8.1,15,0.00,,---,0.00,VWS V12.07,2014-01-13 07:35:00,
2014-01-13 00:46:00,43.0,-1.5,25.99,North,0,3.6,8.7,15,0.00,,---,0.00,VWS V12.07,2014-01-13 07:46:00,
2014-01-13 00:55:00,42.9,-1.6,26.02,North,357,4.0,8.7,15,0.00,,---,0.00,VWS V12.07,2014-01-13 07:55:00,
2014-01-13 01:06:00,42.5,-1.9,26.02,NNW,337,5.8,7.2,15,0.00,,---,0.00,VWS V12.07,2014-01-13 08:06:00,
2014-01-13 01:14:00,42.9,-1.6,26.02,NNW,327,3.6,9.2,15,0.00,,---,0.00,VWS V12.07,2014-01-13 08:14:00,
2014-01-13 01:15:00,42.9,-1.6,26.02,NNW,327,4.9,9.2,15,0.00,,---,0.00,VWS V12.07,2014-01-13 08:15:00,
2014-01-13 01:24:00,42.9,-1.6,26.02,NNW,330,4.0,8.3,15,0.00,,---,0.00,VWS V12.07,2014-01-13 08:24:00,
2014-01-13 01:25:00,42.9,-1.6,26.02,NNW,329,5.8,8.3,15,0.00,,---,0.00,VWS V12.07,2014-01-13 08:25:00,
2014-01-13 01:34:00,42.3,-2.0,26.02,NNW,327,4.0,11.0,15,0.00,,---,0.00,VWS V12.07,2014-01-13 08:34:00,
2014-01-13 01:35:00,42.3,-2.0,26.02,NW,326,6.7,11.0,15,0.00,,---,0.00,VWS V12.07,2014-01-13 08:35:00,
2014-01-13 01:45:00,42.1,-2.2,26.02,NW,321,5.8,6.7,15,0.00,,---,0.00,VWS V12.07,2014-01-13 08:45:00,
2014-01-13 01:55:00,42.3,-2.0,26.05,NW,306,10.1,10.1,15,0.00,,---,0.00,VWS V12.07,2014-01-13 08:55:00,
2014-01-13 02:05:00,42.5,-1.9,26.05,NW,317,4.0,8.3,15,0.00,,---,0.00,VWS V12.07,2014-01-13 09:05:00,
2014-01-13 02:14:00,42.3,-2.0,26.05,NW,314,0.0,8.3,15,0.00,,---,0.00,VWS V12.07,2014-01-13 09:14:00,
2014-01-13 02:24:00,41.2,-2.9,26.05,NW,314,0.0,0.0,15,0.00,,---,0.00,VWS V12.07,2014-01-13 09:24:00,
2014-01-13 02:25:00,41.2,-2.9,26.05,NW,314,0.0,0.0,15,0.00,,---,0.00,VWS V12.07,2014-01-13 09:25:00,
2014-01-13 02:34:00,40.5,-3.5,26.05,NW,314,0.0,4.0,15,0.00,,---,0.00,VWS V12.07,2014-01-13 09:34:00,
2014-01-13 02:35:00,40.5,-3.5,26.05,NW,314,0.0,4.0,15,0.00,,---,0.00,VWS V12.07,2014-01-13 09:35:00,
2014-01-13 02:47:00,40.2,-3.8,26.05,NW,314,0.0,0.0,15,0.00,,---,0.00,VWS V12.07,2014-01-13 09:47:00,
2014-01-13 02:58:00,39.3,-3.2,26.05,NW,314,0.0,0.0,16,0.00,,---,0.00,VWS V12.07,2014-01-13 09:58:00,
2014-01-13 03:08:00,39.3,-3.2,26.05,NW,314,0.0,2.7,16,0.00,,---,0.00,VWS V12.07,2014-01-13 10:08:00,
2014-01-13 03:17:00,38.9,-3.5,26.05,NW,314,0.0,3.6,16,0.00,,---,0.00,VWS V12.07,2014-01-13 10:17:00,
2014-01-13 03:27:00,38.5,-3.8,26.05,NW,314,0.0,0.0,16,0.00,,---,0.00,VWS V12.07,2014-01-13 10:27:00,
2014-01-13 03:35:00,38.2,-4.1,26.05,NW,314,0.0,0.0,16,0.00,,---,0.00,VWS V12.07,2014-01-13 10:35:00,
2014-01-13 03:45:00,37.5,-4.6,26.05,NW,314,0.0,2.7,16,0.00,,---,0.00,VWS V12.07,2014-01-13 10:45:00,
2014-01-13 03:55:00,38.5,-3.8,26.05,NNW,329,2.7,7.6,16,0.00,,---,0.00,VWS V12.07,2014-01-13 10:55:00,
2014-01-13 04:06:00,38.0,-4.2,26.07,NNW,329,0.0,0.0,16,0.00,,---,0.00,VWS V12.07,2014-01-13 11:06:00,
2014-01-13 04:16:00,37.6,-4.5,26.07,NNW,329,0.0,5.4,16,0.00,,---,0.00,VWS V12.07,2014-01-13 11:16:00,
2014-01-13 04:28:00,36.9,-5.1,26.05,NNW,327,2.7,5.8,16,0.00,,---,0.00,VWS V12.07,2014-01-13 11:28:00,
2014-01-13 04:36:00,36.9,-5.1,26.07,NNW,328,2.7,8.3,16,0.00,,---,0.00,VWS V12.07,2014-01-13 11:36:00,
2014-01-13 04:46:00,36.7,-5.2,26.07,NNW,328,0.0,3.6,16,0.00,,---,0.00,VWS V12.07,2014-01-13 11:46:00,
2014-01-13 04:56:00,36.4,-5.5,26.07,NNW,328,0.0,4.0,16,0.00,,---,0.00,VWS V12.07,2014-01-13 11:56:00,
2014-01-13 05:05:00,36.9,-5.1,26.07,NNW,328,0.0,7.6,16,0.00,,---,0.00,VWS V12.07,2014-01-13 12:05:00,
2014-01-13 05:12:00,37.1,-4.9,26.07,NNW,328,0.0,7.6,16,0.00,,---,0.00,VWS V12.07,2014-01-13 12:12:00,
2014-01-13 05:24:00,36.4,-5.5,26.05,NNW,327,5.4,6.3,16,0.00,,---,0.00,VWS V12.07,2014-01-13 12:24:00,
2014-01-13 05:25:00,36.4,-5.5,26.05,NNW,327,4.0,6.3,16,0.00,,---,0.00,VWS V12.07,2014-01-13 12:25:00,
2014-01-13 05:34:00,35.8,-6.0,26.05,NW,317,4.0,8.3,16,0.00,,---,0.00,VWS V12.07,2014-01-13 12:34:00,
2014-01-13 05:35:00,35.8,-6.0,26.05,NW,317,6.3,8.3,16,0.00,,---,0.00,VWS V12.07,2014-01-13 12:35:00,
2014-01-13 05:44:00,35.7,-6.1,26.07,NW,316,3.1,8.1,16,0.00,,---,0.00,VWS V12.07,2014-01-13 12:44:00,
2014-01-13 05:55:00,36.9,-5.1,26.07,NW,316,2.2,8.1,16,0.00,,---,0.00,VWS V12.07,2014-01-13 12:55:00,
2014-01-13 06:05:00,35.5,-6.2,26.07,NW,316,2.7,5.8,16,0.00,,---,0.00,VWS V12.07,2014-01-13 13:05:00,
2014-01-13 06:15:00,33.9,-6.3,26.07,NW,316,4.9,5.8,17,0.00,,---,0.00,VWS V12.07,2014-01-13 13:15:00,
2014-01-13 06:25:00,33.7,-6.5,26.10,NW,313,6.3,8.7,17,0.00,,---,0.00,VWS V12.07,2014-01-13 13:25:00,
2014-01-13 06:35:00,33.7,-6.5,26.10,NW,313,4.9,8.7,17,0.00,,---,0.00,VWS V12.07,2014-01-13 13:35:00,
2014-01-13 06:44:00,33.7,-6.5,26.10,NW,325,4.9,5.8,17,0.00,,---,0.00,VWS V12.07,2014-01-13 13:44:00,
2014-01-13 06:45:00,33.5,-6.6,26.10,NW,325,5.4,5.8,17,0.00,,---,0.00,VWS V12.07,2014-01-13 13:45:00,
2014-01-13 06:50:00,33.1,-6.9,26.10,NNW,333,2.7,6.3,17,0.00,,---,0.00,VWS V12.07,2014-01-13 13:50:00,
2014-01-13 06:55:00,32.8,-7.2,26.10,NNW,333,5.8,8.1,17,0.00,,---,0.00,VWS V12.07,2014-01-13 13:55:00,
2014-01-13 07:04:00,32.2,-7.7,26.10,NNW,334,3.1,6.3,17,0.00,,---,0.00,VWS V12.07,2014-01-13 14:04:00,
2014-01-13 07:05:00,32.2,-7.7,26.10,NNW,334,3.6,6.3,17,0.00,,---,0.00,VWS V12.07,2014-01-13 14:05:00,
2014-01-13 07:14:00,31.0,-8.7,26.10,NNW,334,0.0,6.3,17,0.00,,---,0.00,VWS V12.07,2014-01-13 14:14:00,
2014-01-13 07:15:00,31.0,-8.7,26.10,NNW,334,0.0,6.3,17,0.00,,---,0.00,VWS V12.07,2014-01-13 14:15:00,
2014-01-13 07:24:00,30.3,-8.1,26.10,NNW,334,2.7,4.0,18,0.00,,---,0.00,VWS V12.07,2014-01-13 14:24:00,
2014-01-13 07:25:00,30.4,-8.0,26.10,NNW,334,2.7,4.0,18,0.00,,---,0.00,VWS V12.07,2014-01-13 14:25:00,
2014-01-13 07:34:00,34.9,-6.7,26.10,NNW,334,0.0,4.0,16,0.00,,---,0.00,VWS V12.07,2014-01-13 14:34:00,
2014-01-13 07:45:00,42.0,-2.3,26.13,NNW,334,0.0,0.0,15,0.00,,---,0.00,VWS V12.07,2014-01-13 14:45:00,
2014-01-13 07:55:00,46.1,2.4,26.10,NNW,334,0.0,0.0,16,0.00,,---,0.00,VWS V12.07,2014-01-13 14:55:00,
2014-01-13 08:05:00,49.3,5.1,26.13,NNW,334,0.0,0.0,16,0.00,,---,0.00,VWS V12.07,2014-01-13 15:05:00,
2014-01-13 08:15:00,49.2,4.9,26.13,NNW,334,0.0,0.0,16,0.00,,---,0.00,VWS V12.07,2014-01-13 15:15:00,
2014-01-13 08:25:00,50.4,5.9,26.13,NNW,334,4.0,5.8,16,0.00,,---,0.00,VWS V12.07,2014-01-13 15:25:00,
2014-01-13 08:35:00,49.9,5.5,26.13,NNW,334,0.0,6.3,16,0.00,,---,0.00,VWS V12.07,2014-01-13 15:35:00,
2014-01-13 08:45:00,52.2,6.0,26.13,NNW,334,0.0,0.0,15,0.00,,---,0.00,VWS V12.07,2014-01-13 15:45:00,
2014-01-13 08:55:00,50.2,5.8,26.13,NNW,334,2.2,4.0,16,0.00,,---,0.00,VWS V12.07,2014-01-13 15:55:00,
2014-01-13 09:05:00,49.0,4.8,26.13,NNW,334,0.0,4.0,16,0.00,,---,0.00,VWS V12.07,2014-01-13 16:05:00,
2014-01-13 09:15:00,51.7,5.5,26.16,NNW,334,2.7,4.0,15,0.00,,---,0.00,VWS V12.07,2014-01-13 16:15:00,
2014-01-13 09:25:00,51.0,5.0,26.16,NNW,334,2.7,4.9,15,0.00,,---,0.00,VWS V12.07,2014-01-13 16:25:00,
2014-01-13 09:34:00,53.1,6.7,26.16,NNW,334,3.6,4.9,15,0.00,,---,0.00,VWS V12.07,2014-01-13 16:34:00,
2014-01-13 09:35:00,53.3,6.8,26.16,NNW,334,2.7,4.9,15,0.00,,---,0.00,VWS V12.07,2014-01-13 16:35:00,
2014-01-13 09:44:00,56.2,7.6,26.16,NNW,334,0.0,4.9,14,0.00,,---,0.00,VWS V12.07,2014-01-13 16:44:00,
2014-01-13 09:51:00,58.3,9.4,26.16,NNW,334,3.1,4.9,14,0.00,,---,0.00,VWS V12.07,2014-01-13 16:51:00,
2014-01-13 09:55:00,58.2,9.2,26.16,NNW,335,2.7,5.4,14,0.00,,---,0.00,VWS V12.07,2014-01-13 16:55:00,
2014-01-13 10:05:00,57.1,8.4,26.16,NW,324,5.8,8.7,14,0.00,,---,0.00,VWS V12.07,2014-01-13 17:05:00,
2014-01-13 10:14:00,56.2,7.6,26.16,North,357,5.4,9.2,14,0.00,,---,0.00,VWS V12.07,2014-01-13 17:14:00,
2014-01-13 10:25:00,55.6,7.2,26.16,North,357,3.6,9.6,14,0.00,,---,0.00,VWS V12.07,2014-01-13 17:25:00,
2014-01-13 10:34:00,56.5,7.9,26.16,North,357,5.4,9.6,14,0.00,,---,0.00,VWS V12.07,2014-01-13 17:34:00,
2014-01-13 10:35:00,56.4,7.8,26.16,North,357,3.1,9.6,14,0.00,,---,0.00,VWS V12.07,2014-01-13 17:35:00,
2014-01-13 10:44:00,58.2,9.2,26.16,North,0,5.4,8.1,14,0.00,,---,0.00,VWS V12.07,2014-01-13 17:44:00,
2014-01-13 10:45:00,58.3,9.4,26.16,North,0,3.6,8.1,14,0.00,,---,0.00,VWS V12.07,2014-01-13 17:45:00,
2014-01-13 10:54:00,61.2,10.0,26.13,NW,320,8.1,9.6,13,0.00,,---,0.00,VWS V12.07,2014-01-13 17:54:00,
2014-01-13 10:55:00,61.4,10.1,26.13,NW,319,5.8,9.6,13,0.00,,---,0.00,VWS V12.07,2014-01-13 17:55:00,
2014-01-13 11:06:00,61.8,10.4,26.13,NNW,337,3.6,7.6,13,0.00,,---,0.00,VWS V12.07,2014-01-13 18:06:00,
2014-01-13 11:15:00,62.7,11.1,26.13,NNW,331,5.4,7.6,13,0.00,,---,0.00,VWS V12.07,2014-01-13 18:15:00,
2014-01-13 11:25:00,62.1,10.7,26.13,NNW,332,3.1,8.7,13,0.00,,---,0.00,VWS V12.07,2014-01-13 18:25:00,
2014-01-13 11:34:00,63.0,11.4,26.13,NW,321,8.3,8.7,13,0.00,,---,0.00,VWS V12.07,2014-01-13 18:34:00,
2014-01-13 11:45:00,64.1,10.5,26.13,NW,312,3.6,8.3,12,0.00,,---,0.00,VWS V12.07,2014-01-13 18:45:00,
2014-01-13 11:51:00,63.6,10.1,26.10,NNW,345,0.0,8.3,12,0.00,,---,0.00,VWS V12.07,2014-01-13 18:51:00,
2014-01-13 11:55:00,62.8,11.3,26.10,North,350,3.1,8.3,13,0.00,,---,0.00,VWS V12.07,2014-01-13 18:55:00,
2014-01-13 12:04:00,61.4,10.1,26.10,NNW,327,3.6,8.3,13,0.00,,---,0.00,VWS V12.07,2014-01-13 19:04:00,
2014-01-13 12:05:00,61.2,10.0,26.10,NNW,327,3.1,8.3,13,0.00,,---,0.00,VWS V12.07,2014-01-13 19:05:00,
2014-01-13 12:14:00,61.6,10.3,26.10,NW,316,4.9,8.3,13,0.00,,---,0.00,VWS V12.07,2014-01-13 19:14:00,
2014-01-13 12:25:00,61.0,9.9,26.10,North,350,0.0,7.2,13,0.00,,---,0.00,VWS V12.07,2014-01-13 19:25:00,
2014-01-13 12:35:00,57.6,8.8,26.10,North,0,3.1,7.2,14,0.00,,---,0.00,VWS V12.07,2014-01-13 19:35:00,
2014-01-13 12:45:00,56.7,8.1,26.10,North,2,2.2,6.3,14,0.00,,---,0.00,VWS V12.07,2014-01-13 19:45:00,
2014-01-13 12:55:00,57.4,8.6,26.07,North,1,0.0,6.3,14,0.00,,---,0.00,VWS V12.07,2014-01-13 19:55:00,
2014-01-13 13:05:00,58.0,9.1,26.07,North,1,3.1,5.4,14,0.00,,---,0.00,VWS V12.07,2014-01-13 20:05:00,
2014-01-13 13:15:00,58.3,9.4,26.07,North,4,3.1,6.3,14,0.00,,---,0.00,VWS V12.07,2014-01-13 20:15:00,
2014-01-13 13:25:00,58.7,9.6,26.07,North,8,4.0,5.8,14,0.00,,---,0.00,VWS V12.07,2014-01-13 20:25:00,
2014-01-13 13:34:00,58.9,9.8,26.07,North,8,3.1,5.8,14,0.00,,---,0.00,VWS V12.07,2014-01-13 20:34:00,
2014-01-13 13:35:00,59.1,9.9,26.07,North,8,2.2,5.8,14,0.00,,---,0.00,VWS V12.07,2014-01-13 20:35:00,
2014-01-13 13:44:00,59.4,10.2,26.07,North,8,4.9,4.9,14,0.00,,---,0.00,VWS V12.07,2014-01-13 20:44:00,
2014-01-13 13:45:00,59.4,10.2,26.07,North,8,4.5,4.9,14,0.00,,---,0.00,VWS V12.07,2014-01-13 20:45:00,
2014-01-13 13:54:00,59.8,8.9,26.05,North,8,0.0,6.3,13,0.00,,---,0.00,VWS V12.07,2014-01-13 20:54:00,
2014-01-13 13:55:00,59.8,8.9,26.05,North,8,0.0,6.3,13,0.00,,---,0.00,VWS V12.07,2014-01-13 20:55:00,
2014-01-13 14:04:00,59.6,8.7,26.05,North,8,0.0,2.7,13,0.00,,---,0.00,VWS V12.07,2014-01-13 21:04:00,
2014-01-13 14:13:00,60.1,9.1,26.05,North,8,3.1,5.4,13,0.00,,---,0.00,VWS V12.07,2014-01-13 21:13:00,
2014-01-13 14:15:00,60.1,9.1,26.05,North,8,2.2,5.4,13,0.00,,---,0.00,VWS V12.07,2014-01-13 21:15:00,
2014-01-13 14:24:00,60.0,9.0,26.05,North,8,0.0,4.0,13,0.00,,---,0.00,VWS V12.07,2014-01-13 21:24:00,
2014-01-13 14:34:00,59.8,8.9,26.05,North,8,4.0,4.9,13,0.00,,---,0.00,VWS V12.07,2014-01-13 21:34:00,
2014-01-13 14:44:00,60.1,9.1,26.05,North,9,4.5,5.8,13,0.00,,---,0.00,VWS V12.07,2014-01-13 21:44:00,
2014-01-13 14:45:00,60.1,9.1,26.05,North,9,5.8,5.8,13,0.00,,---,0.00,VWS V12.07,2014-01-13 21:45:00,
2014-01-13 14:53:00,60.5,9.4,26.05,NNE,19,0.0,5.8,13,0.00,,---,0.00,VWS V12.07,2014-01-13 21:53:00,
2014-01-13 14:55:00,60.7,9.6,26.05,NNE,19,2.7,5.8,13,0.00,,---,0.00,VWS V12.07,2014-01-13 21:55:00,
2014-01-13 15:04:00,61.4,10.1,26.05,NNE,19,0.0,5.4,13,0.00,,---,0.00,VWS V12.07,2014-01-13 22:04:00,
2014-01-13 15:05:00,61.2,10.0,26.05,NNE,19,0.0,5.4,13,0.00,,---,0.00,VWS V12.07,2014-01-13 22:05:00,
2014-01-13 15:14:00,61.6,10.3,26.05,NNE,19,0.0,5.4,13,0.00,,---,0.00,VWS V12.07,2014-01-13 22:14:00,
2014-01-13 15:15:00,61.6,10.3,26.05,NNE,19,0.0,5.4,13,0.00,,---,0.00,VWS V12.07,2014-01-13 22:15:00,
2014-01-13 15:24:00,61.9,10.6,26.02,NNE,19,0.0,4.9,13,0.00,,---,0.00,VWS V12.07,2014-01-13 22:24:00,
2014-01-13 15:25:00,61.9,10.6,26.02,NNE,19,2.7,4.9,13,0.00,,---,0.00,VWS V12.07,2014-01-13 22:25:00,
2014-01-13 15:34:00,61.6,10.3,26.02,NNE,19,3.1,4.9,13,0.00,,---,0.00,VWS V12.07,2014-01-13 22:34:00,
2014-01-13 15:35:00,61.4,10.1,26.02,NNE,19,2.2,4.9,13,0.00,,---,0.00,VWS V12.07,2014-01-13 22:35:00,
2014-01-13 15:44:00,61.0,9.9,26.05,NNE,19,5.4,5.4,13,0.00,,---,0.00,VWS V12.07,2014-01-13 22:44:00,
2014-01-13 15:53:00,61.4,10.1,26.02,NE,40,0.0,8.1,13,0.00,,---,0.00,VWS V12.07,2014-01-13 22:53:00,
2014-01-13 15:55:00,61.6,10.3,26.02,NE,39,5.4,8.1,13,0.00,,---,0.00,VWS V12.07,2014-01-13 22:55:00,
2014-01-13 16:04:00,61.6,10.3,26.02,WSW,246,8.3,8.7,13,0.00,,---,0.00,VWS V12.07,2014-01-13 23:04:00,
2014-01-13 16:05:00,61.6,10.3,26.02,WSW,249,5.8,8.7,13,0.00,,---,0.00,VWS V12.07,2014-01-13 23:05:00,
2014-01-13 16:14:00,61.0,9.9,26.02,WSW,243,4.9,8.7,13,0.00,,---,0.00,VWS V12.07,2014-01-13 23:14:00,
2014-01-13 16:15:00,61.0,9.9,26.02,WSW,244,6.3,8.7,13,0.00,,---,0.00,VWS V12.07,2014-01-13 23:15:00,
2014-01-13 16:24:00,60.5,9.4,26.02,West,267,8.3,10.1,13,0.00,,---,0.00,VWS V12.07,2014-01-13 23:24:00,
2014-01-13 16:25:00,60.5,9.4,26.02,West,276,10.1,10.5,13,0.00,,---,0.00,VWS V12.07,2014-01-13 23:25:00,
2014-01-13 16:34:00,59.2,10.1,26.02,West,272,4.0,10.5,14,0.00,,---,0.00,VWS V12.07,2014-01-13 23:34:00,
2014-01-13 16:35:00,59.2,10.1,26.02,West,272,4.0,10.5,14,0.00,,---,0.00,VWS V12.07,2014-01-13 23:35:00,
2014-01-13 16:44:00,58.9,9.8,26.05,West,271,3.1,4.0,14,0.00,,---,0.00,VWS V12.07,2014-01-13 23:44:00,
2014-01-13 16:45:00,58.7,9.6,26.05,West,271,0.0,4.0,14,0.00,,---,0.00,VWS V12.07,2014-01-13 23:45:00,
2014-01-13 16:54:00,58.2,9.2,26.02,WSW,247,4.9,6.3,14,0.00,,---,0.00,VWS V12.07,2014-01-13 23:54:00,
2014-01-13 16:55:00,58.0,9.1,26.02,WSW,247,3.6,6.3,14,0.00,,---,0.00,VWS V12.07,2014-01-13 23:55:00,
2014-01-13 17:04:00,57.1,8.4,26.02,WSW,240,3.6,7.6,14,0.00,,---,0.00,VWS V12.07,2014-01-14 00:04:00,
2014-01-13 17:14:00,56.0,7.5,26.02,WSW,239,5.4,7.6,14,0.00,,---,0.00,VWS V12.07,2014-01-14 00:14:00,
2014-01-13 17:15:00,56.0,7.5,26.02,WSW,239,4.9,7.6,14,0.00,,---,0.00,VWS V12.07,2014-01-14 00:15:00,
2014-01-13 17:24:00,54.6,6.3,26.02,WSW,239,3.1,5.4,14,0.00,,---,0.00,VWS V12.07,2014-01-14 00:24:00,
2014-01-13 17:25:00,54.6,6.3,26.02,WSW,239,4.0,5.4,14,0.00,,---,0.00,VWS V12.07,2014-01-14 00:25:00,
2014-01-13 17:34:00,53.3,6.8,26.02,WSW,239,0.0,5.4,15,0.00,,---,0.00,VWS V12.07,2014-01-14 00:34:00,
2014-01-13 17:35:00,53.1,6.7,26.02,WSW,239,0.0,5.4,15,0.00,,---,0.00,VWS V12.07,2014-01-14 00:35:00,
2014-01-13 17:45:00,51.7,5.5,26.02,WSW,239,0.0,0.0,15,0.00,,---,0.00,VWS V12.07,2014-01-14 00:45:00,
2014-01-13 17:54:00,50.1,5.6,26.02,WSW,239,0.0,0.0,16,0.00,,---,0.00,VWS V12.07,2014-01-14 00:54:00,
2014-01-13 17:55:00,50.1,5.6,26.02,WSW,239,0.0,0.0,16,0.00,,---,0.00,VWS V12.07,2014-01-14 00:55:00,
2014-01-13 18:04:00,48.8,0.2,26.02,WSW,239,0.0,0.0,13,0.00,,---,0.00,VWS V12.07,2014-01-14 01:04:00,
2014-01-13 18:05:00,48.8,0.2,26.02,WSW,239,0.0,0.0,13,0.00,,---,0.00,VWS V12.07,2014-01-14 01:05:00,
2014-01-13 18:14:00,47.7,0.9,26.02,WSW,239,3.1,4.0,14,0.00,,---,0.00,VWS V12.07,2014-01-14 01:14:00,
2014-01-13 18:15:00,47.5,0.7,26.02,WSW,239,3.6,4.0,14,0.00,,---,0.00,VWS V12.07,2014-01-14 01:15:00,
2014-01-13 18:24:00,46.5,-0.2,26.02,WSW,239,3.6,4.0,14,0.00,,---,0.00,VWS V12.07,2014-01-14 01:24:00,
2014-01-13 18:34:00,45.9,-0.6,26.02,WSW,239,3.1,4.9,14,0.00,,---,0.00,VWS V12.07,2014-01-14 01:34:00,
2014-01-13 18:35:00,45.9,-0.6,26.02,WSW,239,3.1,4.9,14,0.00,,---,0.00,VWS V12.07,2014-01-14 01:35:00,
2014-01-13 18:44:00,45.0,-1.3,26.02,WSW,239,2.2,3.6,14,0.00,,---,0.00,VWS V12.07,2014-01-14 01:44:00,
2014-01-13 18:54:00,44.1,-2.0,26.05,WSW,239,2.7,4.0,14,0.00,,---,0.00,VWS V12.07,2014-01-14 01:54:00,
2014-01-13 19:04:00,43.6,-2.5,26.05,WSW,239,3.6,3.6,14,0.00,,---,0.00,VWS V12.07,2014-01-14 02:04:00,
2014-01-13 19:14:00,43.0,-1.5,26.05,WSW,239,2.7,4.0,15,0.00,,---,0.00,VWS V12.07,2014-01-14 02:14:00,
2014-01-13 19:15:00,43.0,-1.5,26.05,WSW,239,2.2,4.0,15,0.00,,---,0.00,VWS V12.07,2014-01-14 02:15:00,
2014-01-13 19:25:00,42.3,-2.0,26.05,WSW,239,2.2,4.0,15,0.00,,---,0.00,VWS V12.07,2014-01-14 02:25:00,
2014-01-13 19:34:00,41.8,-2.5,26.05,WSW,239,6.3,6.3,15,0.00,,---,0.00,VWS V12.07,2014-01-14 02:34:00,
2014-01-13 19:44:00,41.6,-2.6,26.05,WSW,239,0.0,6.3,15,0.00,,---,0.00,VWS V12.07,2014-01-14 02:44:00,
2014-01-13 19:45:00,41.4,-2.8,26.05,WSW,239,0.0,6.3,15,0.00,,---,0.00,VWS V12.07,2014-01-14 02:45:00,
2014-01-13 19:54:00,41.1,-3.0,26.05,WSW,239,0.0,6.3,15,0.00,,---,0.00,VWS V12.07,2014-01-14 02:54:00,
2014-01-13 20:04:00,40.2,-3.8,26.05,WSW,239,0.0,0.0,15,0.00,,---,0.00,VWS V12.07,2014-01-14 03:04:00,
2014-01-13 20:05:00,40.2,-3.8,26.05,WSW,239,0.0,0.0,15,0.00,,---,0.00,VWS V12.07,2014-01-14 03:05:00,
2014-01-13 20:14:00,39.8,-4.1,26.05,WSW,239,0.0,0.0,15,0.00,,---,0.00,VWS V12.07,2014-01-14 03:14:00,
2014-01-13 20:24:00,39.8,-4.1,26.05,WSW,239,2.7,4.0,15,0.00,,---,0.00,VWS V12.07,2014-01-14 03:24:00,
2014-01-13 20:25:00,39.8,-4.1,26.05,WSW,239,4.0,4.0,15,0.00,,---,0.00,VWS V12.07,2014-01-14 03:25:00,
2014-01-13 20:34:00,38.9,-3.5,26.05,WSW,239,0.0,4.5,16,0.00,,---,0.00,VWS V12.07,2014-01-14 03:34:00,
2014-01-13 20:35:00,38.7,-3.6,26.05,WSW,239,0.0,4.5,16,0.00,,---,0.00,VWS V12.07,2014-01-14 03:35:00,
2014-01-13 20:44:00,37.8,-4.3,26.05,WSW,239,0.0,0.0,16,0.00,,---,0.00,VWS V12.07,2014-01-14 03:44:00,
2014-01-13 20:45:00,37.8,-4.3,26.05,WSW,239,0.0,0.0,16,0.00,,---,0.00,VWS V12.07,2014-01-14 03:45:00,
2014-01-13 20:54:00,36.7,-5.2,26.05,WSW,239,0.0,2.7,16,0.00,,---,0.00,VWS V12.07,2014-01-14 03:54:00,
2014-01-13 20:55:00,36.7,-5.2,26.05,WSW,239,0.0,2.7,16,0.00,,---,0.00,VWS V12.07,2014-01-14 03:55:00,
2014-01-13 21:04:00,36.6,-5.4,26.05,WSW,239,0.0,3.1,16,0.00,,---,0.00,VWS V12.07,2014-01-14 04:04:00,
2014-01-13 21:05:00,36.6,-5.4,26.05,WSW,239,0.0,3.1,16,0.00,,---,0.00,VWS V12.07,2014-01-14 04:05:00,
2014-01-13 21:14:00,36.2,-5.7,26.05,WSW,239,0.0,3.1,16,0.00,,---,0.00,VWS V12.07,2014-01-14 04:14:00,
2014-01-13 21:15:00,36.4,-5.5,26.05,WSW,239,0.0,3.1,16,0.00,,---,0.00,VWS V12.07,2014-01-14 04:15:00,
2014-01-13 21:24:00,36.2,-5.7,26.05,WSW,239,0.0,4.0,16,0.00,,---,0.00,VWS V12.07,2014-01-14 04:24:00,
2014-01-13 21:34:00,36.2,-5.7,26.05,WSW,239,0.0,4.0,16,0.00,,---,0.00,VWS V12.07,2014-01-14 04:34:00,
2014-01-13 21:35:00,36.4,-5.5,26.05,WSW,239,0.0,4.0,16,0.00,,---,0.00,VWS V12.07,2014-01-14 04:35:00,
2014-01-13 21:44:00,36.6,-5.4,26.05,WSW,239,0.0,0.0,16,0.00,,---,0.00,VWS V12.07,2014-01-14 04:44:00,
2014-01-13 21:45:00,36.6,-5.4,26.05,WSW,239,0.0,0.0,16,0.00,,---,0.00,VWS V12.07,2014-01-14 04:45:00,
2014-01-13 21:54:00,36.7,-5.2,26.05,WSW,239,0.0,0.0,16,0.00,,---,0.00,VWS V12.07,2014-01-14 04:54:00,
2014-01-13 21:55:00,36.7,-5.2,26.05,WSW,239,0.0,0.0,16,0.00,,---,0.00,VWS V12.07,2014-01-14 04:55:00,
2014-01-13 22:04:00,36.0,-5.8,26.05,WSW,239,0.0,0.0,16,0.00,,---,0.00,VWS V12.07,2014-01-14 05:04:00,
2014-01-13 22:05:00,36.0,-5.8,26.05,WSW,239,0.0,0.0,16,0.00,,---,0.00,VWS V12.07,2014-01-14 05:05:00,
2014-01-13 22:14:00,35.5,-6.2,26.05,WSW,239,0.0,0.0,16,0.00,,---,0.00,VWS V12.07,2014-01-14 05:14:00,
2014-01-13 22:15:00,35.3,-6.4,26.05,WSW,239,0.0,0.0,16,0.00,,---,0.00,VWS V12.07,2014-01-14 05:15:00,
2014-01-13 22:24:00,34.4,-7.1,26.05,WSW,239,0.0,0.0,16,0.00,,---,0.00,VWS V12.07,2014-01-14 05:24:00,
2014-01-13 22:25:00,34.4,-7.1,26.05,WSW,239,0.0,0.0,16,0.00,,---,0.00,VWS V12.07,2014-01-14 05:25:00,
2014-01-13 22:34:00,34.0,-6.2,26.05,WSW,239,0.0,0.0,17,0.00,,---,0.00,VWS V12.07,2014-01-14 05:34:00,
2014-01-13 22:35:00,34.0,-6.2,26.05,WSW,239,0.0,0.0,17,0.00,,---,0.00,VWS V12.07,2014-01-14 05:35:00,
2014-01-13 22:44:00,33.3,-6.8,26.05,WSW,239,0.0,0.0,17,0.00,,---,0.00,VWS V12.07,2014-01-14 05:44:00,
2014-01-13 22:45:00,33.3,-6.8,26.05,WSW,239,0.0,0.0,17,0.00,,---,0.00,VWS V12.07,2014-01-14 05:45:00,
2014-01-13 22:54:00,33.1,-6.9,26.05,WSW,239,0.0,0.0,17,0.00,,---,0.00,VWS V12.07,2014-01-14 05:54:00,
2014-01-13 22:55:00,33.1,-6.9,26.05,WSW,239,0.0,0.0,17,0.00,,---,0.00,VWS V12.07,2014-01-14 05:55:00,
2014-01-13 23:04:00,32.8,-7.2,26.05,WSW,239,0.0,0.0,17,0.00,,---,0.00,VWS V12.07,2014-01-14 06:04:00,
2014-01-13 23:05:00,32.6,-7.4,26.05,WSW,239,0.0,0.0,17,0.00,,---,0.00,VWS V12.07,2014-01-14 06:05:00,
2014-01-13 23:14:00,32.2,-7.7,26.07,WSW,239,4.0,4.9,17,0.00,,---,0.00,VWS V12.07,2014-01-14 06:14:00,
2014-01-13 23:15:00,32.2,-7.7,26.07,WSW,239,3.6,4.9,17,0.00,,---,0.00,VWS V12.07,2014-01-14 06:15:00,
2014-01-13 23:24:00,31.9,-8.0,26.05,WSW,239,2.7,3.6,17,0.00,,---,0.00,VWS V12.07,2014-01-14 06:24:00,
2014-01-13 23:25:00,31.9,-8.0,26.05,WSW,239,2.2,3.6,17,0.00,,---,0.00,VWS V12.07,2014-01-14 06:25:00,
2014-01-13 23:34:00,31.9,-8.0,26.05,WSW,239,0.0,3.6,17,0.00,,---,0.00,VWS V12.07,2014-01-14 06:34:00,
2014-01-13 23:35:00,31.9,-8.0,26.05,WSW,239,0.0,3.6,17,0.00,,---,0.00,VWS V12.07,2014-01-14 06:35:00,
2014-01-13 23:44:00,32.1,-7.8,26.07,WSW,239,2.2,4.0,17,0.00,,---,0.00,VWS V12.07,2014-01-14 06:44:00,
2014-01-13 23:45:00,32.1,-7.8,26.07,WSW,239,2.7,4.0,17,0.00,,---,0.00,VWS V12.07,2014-01-14 06:45:00,
2014-01-13 23:54:00,32.4,-7.5,26.07,WSW,239,0.0,4.0,17,0.00,,---,0.00,VWS V12.07,2014-01-14 06:54:00,
2014-01-13 23:55:00,32.4,-7.5,26.07,WSW,239,0.0,4.0,17,0.00,,---,0.00,VWS V12.07,2014-01-14 06:55:00,